Time,TemperatureF,DewpointF,PressureIn,WindDirection,WindDirectionDegrees,WindSpeedMPH,WindSpeedGustMPH,Humidity,HourlyPrecipIn,Conditions,Clouds,dailyrainin,SoftwareType,DateUTC
2013-10-03 00:23:00,68.0,62.0,29.80,SSW,194,3.0,7.0,81,0.00,,,0.00,,2013-10-03 05:23:00,
2013-10-03 00:33:00,68.0,62.0,29.80,SSW,194,3.0,7.0,81,0.00,,,0.00,,2013-10-03 05:33:00,
2013-10-03 00:43:00,68.0,62.0,29.80,SSW,194,3.0,7.0,81,0.00,,,0.00,,2013-10-03 05:43:00,
2013-10-03 00:52:00,66.0,61.0,29.80,SSW,194,3.0,7.0,84,0.00,,,0.00,,2013-10-03 05:52:00,
2013-10-03 01:12:00,67.0,62.0,29.80,SSW,212,3.0,8.0,84,0.00,,,0.00,,2013-10-03 06:12:00,
2013-10-03 01:22:00,67.0,62.0,29.79,SSW,198,6.0,10.0,84,0.00,,,0.00,,2013-10-03 06:22:00,
2013-10-03 01:42:00,67.0,62.0,29.79,SSW,210,3.0,7.0,84,0.00,,,0.00,,2013-10-03 06:42:00,
2013-10-03 01:52:00,67.0,62.0,29.80,South,171,2.0,5.0,84,0.00,,,0.00,,2013-10-03 06:52:00,
2013-10-03 02:11:00,66.0,61.0,29.80,South,181,2.0,7.0,84,0.00,,,0.00,,2013-10-03 07:11:00,
2013-10-03 02:22:00,66.0,61.0,29.80,NNW,332,1.0,2.0,85,0.00,,,0.00,,2013-10-03 07:22:00,
2013-10-03 02:42:00,66.0,61.0,29.81,NNE,18,0.0,2.0,84,0.00,,,0.00,,2013-10-03 07:42:00,
2013-10-03 02:52:00,66.0,61.0,29.80,SSE,150,1.0,2.0,84,0.00,,,0.00,,2013-10-03 07:52:00,
2013-10-03 03:12:00,66.0,61.0,29.80,SSE,152,0.0,2.0,85,0.00,,,0.00,,2013-10-03 08:12:00,
2013-10-03 03:22:00,65.0,61.0,29.80,SSE,156,0.0,1.0,86,0.00,,,0.00,,2013-10-03 08:22:00,
2013-10-03 03:42:00,65.0,61.0,29.80,South,171,3.0,5.0,87,0.00,,,0.00,,2013-10-03 08:42:00,
2013-10-03 03:52:00,65.0,62.0,29.78,ESE,109,0.0,4.0,89,0.05,,,0.05,,2013-10-03 08:52:00,
2013-10-03 04:12:00,64.0,61.0,29.78,SE,127,0.0,1.0,91,0.05,,,0.05,,2013-10-03 09:12:00,
2013-10-03 04:22:00,63.0,61.0,29.78,SE,127,0.0,1.0,92,0.05,,,0.05,,2013-10-03 09:22:00,
2013-10-03 04:43:00,63.0,61.0,29.79,South,191,0.0,4.0,93,0.05,,,0.05,,2013-10-03 09:43:00,
2013-10-03 04:53:00,63.0,61.0,29.79,East,101,1.0,3.0,93,0.00,,,0.05,,2013-10-03 09:53:00,
2013-10-03 05:13:00,63.0,61.0,29.78,ESE,110,1.0,3.0,94,0.00,,,0.05,,2013-10-03 10:13:00,
2013-10-03 05:23:00,62.0,60.0,29.78,East,99,0.0,2.0,94,0.00,,,0.05,,2013-10-03 10:23:00,
2013-10-03 05:43:00,62.0,60.0,29.78,East,92,2.0,3.0,94,0.00,,,0.05,,2013-10-03 10:43:00,
2013-10-03 05:52:00,62.0,60.0,29.78,East,97,0.0,3.0,94,0.00,,,0.05,,2013-10-03 10:52:00,
2013-10-03 06:12:00,62.0,61.0,29.79,West,273,0.0,2.0,95,0.00,,,0.05,,2013-10-03 11:12:00,
2013-10-03 06:23:00,62.0,61.0,29.80,West,273,0.0,0.0,95,0.00,,,0.05,,2013-10-03 11:23:00,
2013-10-03 06:42:00,62.0,61.0,29.79,North,359,1.0,2.0,95,0.00,,,0.05,,2013-10-03 11:42:00,
2013-10-03 06:52:00,62.0,61.0,29.79,ESE,106,0.0,2.0,95,0.00,,,0.05,,2013-10-03 11:52:00,
2013-10-03 07:12:00,62.0,61.0,29.77,NNE,13,0.0,2.0,95,0.00,,,0.05,,2013-10-03 12:12:00,
2013-10-03 07:22:00,62.0,61.0,29.77,NE,40,0.0,2.0,95,0.00,,,0.05,,2013-10-03 12:22:00,
2013-10-03 07:42:00,62.0,61.0,29.78,West,260,0.0,2.0,96,0.00,,,0.05,,2013-10-03 12:42:00,
2013-10-03 07:52:00,62.0,61.0,29.77,NNE,33,2.0,4.0,96,0.13,,,0.18,,2013-10-03 12:52:00,
2013-10-03 08:11:00,62.0,61.0,29.76,North,11,3.0,6.0,96,0.30,,,0.35,,2013-10-03 13:11:00,
2013-10-03 08:22:00,62.0,61.0,29.78,East,80,2.0,4.0,96,0.30,,,0.35,,2013-10-03 13:22:00,
2013-10-03 08:42:00,62.0,61.0,29.76,NNW,347,2.0,5.0,96,0.30,,,0.35,,2013-10-03 13:42:00,
2013-10-03 08:52:00,62.0,61.0,29.78,SSW,211,0.0,2.0,96,0.15,,,0.37,,2013-10-03 13:52:00,
2013-10-03 09:11:00,62.0,61.0,29.76,North,8,3.0,5.0,96,0.06,,,0.41,,2013-10-03 14:11:00,
2013-10-03 09:22:00,62.0,61.0,29.75,NNE,20,1.0,3.0,96,0.06,,,0.41,,2013-10-03 14:22:00,
2013-10-03 09:42:00,63.0,62.0,29.78,North,354,0.0,2.0,96,0.06,,,0.41,,2013-10-03 14:42:00,
2013-10-03 09:52:00,63.0,62.0,29.76,North,360,1.0,3.0,96,0.04,,,0.41,,2013-10-03 14:52:00,
2013-10-03 10:11:00,63.0,62.0,29.75,NNW,342,0.0,3.0,96,0.00,,,0.41,,2013-10-03 15:11:00,
2013-10-03 10:22:00,63.0,62.0,29.77,WSW,240,0.0,2.0,96,0.00,,,0.41,,2013-10-03 15:22:00,
2013-10-03 10:43:00,64.0,63.0,29.75,ENE,70,1.0,5.0,97,0.00,,,0.41,,2013-10-03 15:43:00,
2013-10-03 10:53:00,64.0,63.0,29.75,NE,40,2.0,4.0,96,0.00,,,0.41,,2013-10-03 15:53:00,
2013-10-03 11:12:00,65.0,64.0,29.75,East,84,2.0,4.0,95,0.00,,,0.41,,2013-10-03 16:12:00,
2013-10-03 11:23:00,66.0,65.0,29.75,NNE,19,0.0,4.0,95,0.00,,,0.41,,2013-10-03 16:23:00,
2013-10-03 11:42:00,66.0,64.0,29.76,NE,56,2.0,5.0,93,0.00,,,0.41,,2013-10-03 16:42:00,
2013-10-03 11:53:00,66.0,63.0,29.77,ESE,116,1.0,3.0,91,0.00,,,0.41,,2013-10-03 16:53:00,
2013-10-03 12:12:00,67.0,64.0,29.76,ENE,67,1.0,4.0,91,0.00,,,0.41,,2013-10-03 17:12:00,
2013-10-03 12:22:00,67.0,64.0,29.75,NE,51,0.0,3.0,91,0.00,,,0.41,,2013-10-03 17:22:00,
2013-10-03 12:42:00,67.0,63.0,29.75,SSW,205,1.0,2.0,88,0.00,,,0.41,,2013-10-03 17:42:00,
2013-10-03 12:52:00,69.0,65.0,29.74,NNE,16,0.0,2.0,87,0.00,,,0.41,,2013-10-03 17:52:00,
2013-10-03 13:12:00,71.0,65.0,29.74,NE,54,0.0,1.0,82,0.00,,,0.41,,2013-10-03 18:12:00,
2013-10-03 13:22:00,71.0,64.0,29.74,SSE,157,0.0,2.0,79,0.00,,,0.41,,2013-10-03 18:22:00,
2013-10-03 13:42:00,72.0,65.0,29.74,NNW,335,0.0,2.0,78,0.00,,,0.41,,2013-10-03 18:42:00,
2013-10-03 13:52:00,72.0,65.0,29.74,NNW,335,0.0,2.0,78,0.00,,,0.41,,2013-10-03 18:52:00,
2013-10-03 14:11:00,72.0,65.0,29.74,NNE,18,0.0,3.0,79,0.00,,,0.41,,2013-10-03 19:11:00,
2013-10-03 14:22:00,73.0,65.0,29.73,NNE,12,2.0,5.0,75,0.00,,,0.41,,2013-10-03 19:22:00,
2013-10-03 14:32:00,73.0,65.0,29.73,NNE,12,2.0,5.0,75,0.00,,,0.41,,2013-10-03 19:32:00,
2013-10-03 14:42:00,73.0,65.0,29.73,NNE,12,2.0,5.0,75,0.00,,,0.41,,2013-10-03 19:42:00,
2013-10-03 14:52:00,74.0,65.0,29.74,NE,49,2.0,6.0,74,0.00,,,0.41,,2013-10-03 19:52:00,
2013-10-03 15:12:00,73.0,65.0,29.75,NNW,340,2.0,12.0,75,0.00,,,0.41,,2013-10-03 20:12:00,
2013-10-03 15:21:00,71.0,64.0,29.76,WNW,298,3.0,11.0,79,0.00,,,0.41,,2013-10-03 20:21:00,
2013-10-03 15:42:00,71.0,64.0,29.76,NNE,32,3.0,8.0,78,0.00,,,0.41,,2013-10-03 20:42:00,
2013-10-03 15:52:00,70.0,62.0,29.76,NNE,22,5.0,10.0,77,0.00,,,0.41,,2013-10-03 20:52:00,
2013-10-03 16:12:00,71.0,63.0,29.76,North,350,4.0,10.0,77,0.00,,,0.41,,2013-10-03 21:12:00,
2013-10-03 16:21:00,71.0,63.0,29.76,NNW,330,4.0,10.0,77,0.00,,,0.41,,2013-10-03 21:21:00,
2013-10-03 16:43:00,70.0,63.0,29.77,North,349,8.0,12.0,78,0.00,,,0.41,,2013-10-03 21:43:00,
2013-10-03 16:54:00,69.0,63.0,29.77,NW,323,5.0,9.0,80,0.00,,,0.41,,2013-10-03 21:54:00,
2013-10-03 17:13:00,69.0,62.0,29.78,NNW,328,6.0,11.0,79,0.00,,,0.41,,2013-10-03 22:13:00,
2013-10-03 17:23:00,68.0,62.0,29.78,NW,319,4.0,7.0,82,0.00,,,0.41,,2013-10-03 22:23:00,
2013-10-03 17:43:00,68.0,62.0,29.78,NNW,342,1.0,8.0,82,0.00,,,0.41,,2013-10-03 22:43:00,
2013-10-03 17:54:00,67.0,62.0,29.79,NW,326,2.0,10.0,84,0.00,,,0.41,,2013-10-03 22:54:00,
2013-10-03 18:12:00,65.0,61.0,29.79,North,9,4.0,9.0,86,0.00,,,0.41,,2013-10-03 23:12:00,
2013-10-03 18:22:00,65.0,61.0,29.78,North,355,6.0,11.0,88,0.00,,,0.41,,2013-10-03 23:22:00,
2013-10-03 18:43:00,64.0,61.0,29.78,North,11,4.0,8.0,89,0.00,,,0.41,,2013-10-03 23:43:00,
2013-10-03 18:52:00,63.0,60.0,29.79,NNE,12,4.0,9.0,91,0.00,,,0.41,,2013-10-03 23:52:00,
2013-10-03 19:12:00,63.0,60.0,29.80,North,4,4.0,8.0,91,0.00,,,0.41,,2013-10-04 00:12:00,
2013-10-03 19:22:00,63.0,60.0,29.80,North,9,3.0,5.0,91,0.00,,,0.41,,2013-10-04 00:22:00,
2013-10-03 19:42:00,63.0,61.0,29.79,North,355,3.0,6.0,92,0.00,,,0.41,,2013-10-04 00:42:00,
2013-10-03 19:52:00,63.0,61.0,29.80,NNE,22,3.0,5.0,92,0.00,,,0.41,,2013-10-04 00:52:00,
2013-10-03 20:12:00,62.0,59.0,29.79,North,10,2.0,6.0,91,0.00,,,0.41,,2013-10-04 01:12:00,
2013-10-03 20:22:00,62.0,60.0,29.79,North,353,1.0,4.0,92,0.00,,,0.41,,2013-10-04 01:22:00,
2013-10-03 20:42:00,62.0,60.0,29.79,ENE,64,1.0,4.0,92,0.00,,,0.41,,2013-10-04 01:42:00,
2013-10-03 20:52:00,61.0,59.0,29.80,North,357,2.0,3.0,92,0.00,,,0.41,,2013-10-04 01:52:00,
2013-10-03 21:12:00,61.0,59.0,29.80,NNE,16,2.0,3.0,93,0.00,,,0.41,,2013-10-04 02:12:00,
2013-10-03 21:22:00,61.0,59.0,29.81,ENE,58,0.0,3.0,93,0.00,,,0.41,,2013-10-04 02:22:00,
2013-10-03 21:43:00,60.0,58.0,29.81,North,9,4.0,7.0,94,0.00,,,0.41,,2013-10-04 02:43:00,
2013-10-03 21:52:00,60.0,59.0,29.81,NNE,13,4.0,7.0,95,0.00,,,0.41,,2013-10-04 02:52:00,
2013-10-03 22:12:00,60.0,59.0,29.82,NE,41,3.0,5.0,95,0.00,,,0.41,,2013-10-04 03:12:00,
2013-10-03 22:22:00,60.0,59.0,29.83,NNE,30,6.0,8.0,95,0.00,,,0.41,,2013-10-04 03:22:00,
2013-10-03 22:44:00,59.0,58.0,29.83,North,4,4.0,8.0,95,0.00,,,0.41,,2013-10-04 03:44:00,
2013-10-03 22:57:00,59.0,58.0,29.84,North,11,4.0,7.0,96,0.00,,,0.41,,2013-10-04 03:57:00,
2013-10-03 23:58:00,58.0,57.0,29.85,NNE,20,4.0,7.0,96,0.00,,,0.41,,2013-10-04 04:58:00,